sensor_id;sensor_type;location;lat;lon;timestamp;P1;durP1;ratioP1;P2;durP2;ratioP2
64085;SDS011;50333;47.436;21.390;2022-09-09T00:01:46;3.72;;;2.00;;
64085;SDS011;50333;47.436;21.390;2022-09-09T00:03:57;2.85;;;1.95;;
64085;SDS011;50333;47.436;21.390;2022-09-09T00:09:24;3.60;;;2.33;;
64085;SDS011;50333;47.436;21.390;2022-09-09T00:11:58;7.05;;;2.12;;
64085;SDS011;50333;47.436;21.390;2022-09-09T00:14:54;5.30;;;2.58;;
64085;SDS011;50333;47.436;21.390;2022-09-09T00:20:19;5.18;;;2.33;;
64085;SDS011;50333;47.436;21.390;2022-09-09T00:26:14;3.87;;;2.10;;
64085;SDS011;50333;47.436;21.390;2022-09-09T00:28:50;2.75;;;2.17;;
64085;SDS011;50333;47.436;21.390;2022-09-09T00:31:25;7.45;;;2.30;;
64085;SDS011;50333;47.436;21.390;2022-09-09T00:33:57;2.72;;;1.90;;
64085;SDS011;50333;47.436;21.390;2022-09-09T00:36:30;4.22;;;2.00;;
64085;SDS011;50333;47.436;21.390;2022-09-09T00:39:00;2.95;;;2.20;;
64085;SDS011;50333;47.436;21.390;2022-09-09T00:55:07;4.18;;;2.10;;
64085;SDS011;50333;47.436;21.390;2022-09-09T00:57:49;3.15;;;2.17;;
64085;SDS011;50333;47.436;21.390;2022-09-09T01:08:00;3.50;;;2.25;;
64085;SDS011;50333;47.436;21.390;2022-09-09T01:10:37;8.90;;;3.03;;
64085;SDS011;50333;47.436;21.390;2022-09-09T01:13:16;5.22;;;2.47;;
64085;SDS011;50333;47.436;21.390;2022-09-09T01:15:50;4.43;;;2.25;;
64085;SDS011;50333;47.436;21.390;2022-09-09T01:18:27;5.32;;;2.50;;
64085;SDS011;50333;47.436;21.390;2022-09-09T01:26:45;3.87;;;2.10;;
64085;SDS011;50333;47.436;21.390;2022-09-09T01:29:15;3.40;;;1.90;;
64085;SDS011;50333;47.436;21.390;2022-09-09T01:31:52;2.62;;;1.52;;
64085;SDS011;50333;47.436;21.390;2022-09-09T01:34:25;4.15;;;2.08;;
64085;SDS011;50333;47.436;21.390;2022-09-09T01:37:06;3.75;;;1.48;;
64085;SDS011;50333;47.436;21.390;2022-09-09T01:39:40;2.70;;;1.80;;
64085;SDS011;50333;47.436;21.390;2022-09-09T01:42:12;3.97;;;2.00;;
64085;SDS011;50333;47.436;21.390;2022-09-09T01:44:42;4.28;;;2.03;;
64085;SDS011;50333;47.436;21.390;2022-09-09T01:47:10;2.28;;;1.70;;
64085;SDS011;50333;47.436;21.390;2022-09-09T01:49:39;2.78;;;1.62;;
64085;SDS011;50333;47.436;21.390;2022-09-09T01:52:07;5.68;;;2.20;;
64085;SDS011;50333;47.436;21.390;2022-09-09T01:54:36;3.85;;;1.80;;
64085;SDS011;50333;47.436;21.390;2022-09-09T01:57:22;4.15;;;1.80;;
64085;SDS011;50333;47.436;21.390;2022-09-09T02:00:00;2.58;;;1.98;;
64085;SDS011;50333;47.436;21.390;2022-09-09T02:08:23;3.50;;;1.92;;
64085;SDS011;50333;47.436;21.390;2022-09-09T02:11:05;3.62;;;2.00;;
64085;SDS011;50333;47.436;21.390;2022-09-09T02:13:45;2.87;;;2.10;;
64085;SDS011;50333;47.436;21.390;2022-09-09T02:18:50;2.20;;;1.92;;
64085;SDS011;50333;47.436;21.390;2022-09-09T02:21:23;3.87;;;2.37;;
64085;SDS011;50333;47.436;21.390;2022-09-09T02:23:56;3.28;;;2.05;;
64085;SDS011;50333;47.436;21.390;2022-09-09T02:26:29;2.45;;;2.12;;
64085;SDS011;50333;47.436;21.390;2022-09-09T02:28:57;2.95;;;2.05;;
64085;SDS011;50333;47.436;21.390;2022-09-09T02:31:28;2.80;;;2.17;;
64085;SDS011;50333;47.436;21.390;2022-09-09T02:34:00;2.10;;;1.90;;
64085;SDS011;50333;47.436;21.390;2022-09-09T02:36:32;4.57;;;1.83;;
64085;SDS011;50333;47.436;21.390;2022-09-09T02:39:02;2.85;;;2.20;;
64085;SDS011;50333;47.436;21.390;2022-09-09T02:41:36;4.05;;;1.98;;
64085;SDS011;50333;47.436;21.390;2022-09-09T02:44:13;4.57;;;2.10;;
64085;SDS011;50333;47.436;21.390;2022-09-09T02:55:21;2.95;;;2.53;;
64085;SDS011;50333;47.436;21.390;2022-09-09T02:57:52;3.72;;;2.65;;
64085;SDS011;50333;47.436;21.390;2022-09-09T03:02:56;2.92;;;2.70;;
64085;SDS011;50333;47.436;21.390;2022-09-09T03:05:23;5.53;;;2.65;;
64085;SDS011;50333;47.436;21.390;2022-09-09T03:08:00;4.53;;;2.50;;
64085;SDS011;50333;47.436;21.390;2022-09-09T03:10:32;6.57;;;2.97;;
64085;SDS011;50333;47.436;21.390;2022-09-09T03:13:00;3.70;;;2.80;;
64085;SDS011;50333;47.436;21.390;2022-09-09T03:15:30;3.75;;;3.25;;
64085;SDS011;50333;47.436;21.390;2022-09-09T03:17:58;4.45;;;3.08;;
64085;SDS011;50333;47.436;21.390;2022-09-09T03:20:27;3.62;;;3.00;;
64085;SDS011;50333;47.436;21.390;2022-09-09T03:22:56;4.55;;;3.20;;
64085;SDS011;50333;47.436;21.390;2022-09-09T03:25:26;7.65;;;3.40;;
64085;SDS011;50333;47.436;21.390;2022-09-09T03:27:56;3.50;;;3.20;;
64085;SDS011;50333;47.436;21.390;2022-09-09T03:30:25;7.87;;;3.35;;
64085;SDS011;50333;47.436;21.390;2022-09-09T03:32:55;3.58;;;3.08;;
64085;SDS011;50333;47.436;21.390;2022-09-09T03:35:23;6.25;;;3.42;;
64085;SDS011;50333;47.436;21.390;2022-09-09T03:37:51;4.05;;;3.17;;
64085;SDS011;50333;47.436;21.390;2022-09-09T03:40:19;5.20;;;3.35;;
64085;SDS011;50333;47.436;21.390;2022-09-09T03:42:47;6.72;;;3.70;;
64085;SDS011;50333;47.436;21.390;2022-09-09T03:45:16;4.12;;;3.22;;
64085;SDS011;50333;47.436;21.390;2022-09-09T03:47:44;4.32;;;3.17;;
64085;SDS011;50333;47.436;21.390;2022-09-09T03:50:14;3.70;;;3.40;;
64085;SDS011;50333;47.436;21.390;2022-09-09T03:52:42;6.62;;;3.30;;
64085;SDS011;50333;47.436;21.390;2022-09-09T03:55:12;5.22;;;3.72;;
64085;SDS011;50333;47.436;21.390;2022-09-09T03:57:42;6.00;;;3.47;;
64085;SDS011;50333;47.436;21.390;2022-09-09T04:00:10;6.00;;;3.75;;
64085;SDS011;50333;47.436;21.390;2022-09-09T04:02:42;4.12;;;3.72;;
64085;SDS011;50333;47.436;21.390;2022-09-09T04:05:11;4.47;;;3.58;;
64085;SDS011;50333;47.436;21.390;2022-09-09T04:07:39;4.87;;;3.72;;
64085;SDS011;50333;47.436;21.390;2022-09-09T04:10:07;4.82;;;3.47;;
64085;SDS011;50333;47.436;21.390;2022-09-09T04:12:37;4.53;;;3.80;;
64085;SDS011;50333;47.436;21.390;2022-09-09T04:15:05;4.25;;;3.47;;
64085;SDS011;50333;47.436;21.390;2022-09-09T04:17:33;4.10;;;3.60;;
64085;SDS011;50333;47.436;21.390;2022-09-09T04:20:05;5.45;;;4.03;;
64085;SDS011;50333;47.436;21.390;2022-09-09T04:22:34;4.87;;;3.70;;
64085;SDS011;50333;47.436;21.390;2022-09-09T04:25:02;4.37;;;3.97;;
64085;SDS011;50333;47.436;21.390;2022-09-09T04:27:30;4.95;;;3.90;;
64085;SDS011;50333;47.436;21.390;2022-09-09T04:29:58;9.25;;;3.90;;
64085;SDS011;50333;47.436;21.390;2022-09-09T04:32:26;13.35;;;4.03;;
64085;SDS011;50333;47.436;21.390;2022-09-09T04:34:54;4.50;;;3.90;;
64085;SDS011;50333;47.436;21.390;2022-09-09T04:37:22;6.55;;;4.32;;
64085;SDS011;50333;47.436;21.390;2022-09-09T04:39:52;7.45;;;4.00;;
64085;SDS011;50333;47.436;21.390;2022-09-09T04:42:20;5.60;;;4.40;;
64085;SDS011;50333;47.436;21.390;2022-09-09T04:44:48;4.30;;;3.90;;
64085;SDS011;50333;47.436;21.390;2022-09-09T04:47:17;5.20;;;4.07;;
64085;SDS011;50333;47.436;21.390;2022-09-09T04:49:45;7.03;;;4.03;;
64085;SDS011;50333;47.436;21.390;2022-09-09T04:52:12;7.82;;;3.45;;
64085;SDS011;50333;47.436;21.390;2022-09-09T04:54:40;8.68;;;3.90;;
64085;SDS011;50333;47.436;21.390;2022-09-09T04:57:09;6.87;;;4.20;;
64085;SDS011;50333;47.436;21.390;2022-09-09T04:59:48;6.28;;;4.20;;
64085;SDS011;50333;47.436;21.390;2022-09-09T05:02:15;6.05;;;4.00;;
64085;SDS011;50333;47.436;21.390;2022-09-09T05:04:43;4.70;;;4.05;;
64085;SDS011;50333;47.436;21.390;2022-09-09T05:07:12;7.32;;;3.85;;
64085;SDS011;50333;47.436;21.390;2022-09-09T05:09:42;5.57;;;4.18;;
64085;SDS011;50333;47.436;21.390;2022-09-09T05:12:10;5.05;;;4.20;;
64085;SDS011;50333;47.436;21.390;2022-09-09T05:14:40;7.85;;;4.37;;
64085;SDS011;50333;47.436;21.390;2022-09-09T05:17:08;4.07;;;3.70;;
64085;SDS011;50333;47.436;21.390;2022-09-09T05:19:36;5.57;;;3.67;;
64085;SDS011;50333;47.436;21.390;2022-09-09T05:22:04;4.28;;;3.85;;
64085;SDS011;50333;47.436;21.390;2022-09-09T05:24:32;6.25;;;4.05;;
64085;SDS011;50333;47.436;21.390;2022-09-09T05:27:01;4.50;;;3.87;;
64085;SDS011;50333;47.436;21.390;2022-09-09T05:29:29;4.90;;;3.90;;
64085;SDS011;50333;47.436;21.390;2022-09-09T05:32:01;4.70;;;3.78;;
64085;SDS011;50333;47.436;21.390;2022-09-09T05:34:30;6.22;;;4.45;;
64085;SDS011;50333;47.436;21.390;2022-09-09T05:36:57;5.37;;;3.65;;
64085;SDS011;50333;47.436;21.390;2022-09-09T05:39:25;5.78;;;3.80;;
64085;SDS011;50333;47.436;21.390;2022-09-09T05:41:53;4.60;;;3.90;;
64085;SDS011;50333;47.436;21.390;2022-09-09T05:44:22;6.35;;;4.28;;
64085;SDS011;50333;47.436;21.390;2022-09-09T05:46:55;4.28;;;3.87;;
64085;SDS011;50333;47.436;21.390;2022-09-09T05:49:23;4.97;;;4.20;;
64085;SDS011;50333;47.436;21.390;2022-09-09T05:51:51;5.47;;;4.10;;
64085;SDS011;50333;47.436;21.390;2022-09-09T05:54:20;5.97;;;4.07;;
64085;SDS011;50333;47.436;21.390;2022-09-09T05:56:47;4.97;;;4.05;;
64085;SDS011;50333;47.436;21.390;2022-09-09T05:59:18;7.68;;;4.62;;
64085;SDS011;50333;47.436;21.390;2022-09-09T06:01:46;4.72;;;4.25;;
64085;SDS011;50333;47.436;21.390;2022-09-09T06:04:15;6.97;;;4.60;;
64085;SDS011;50333;47.436;21.390;2022-09-09T06:06:43;6.95;;;4.53;;
64085;SDS011;50333;47.436;21.390;2022-09-09T06:09:11;9.77;;;4.70;;
64085;SDS011;50333;47.436;21.390;2022-09-09T06:11:39;9.23;;;4.87;;
64085;SDS011;50333;47.436;21.390;2022-09-09T06:14:07;8.32;;;5.00;;
64085;SDS011;50333;47.436;21.390;2022-09-09T06:16:36;8.57;;;5.15;;
64085;SDS011;50333;47.436;21.390;2022-09-09T06:19:05;6.00;;;5.30;;
64085;SDS011;50333;47.436;21.390;2022-09-09T06:21:34;6.25;;;5.25;;
64085;SDS011;50333;47.436;21.390;2022-09-09T06:24:06;13.30;;;6.65;;
64085;SDS011;50333;47.436;21.390;2022-09-09T06:26:38;9.50;;;7.20;;
64085;SDS011;50333;47.436;21.390;2022-09-09T06:29:10;11.40;;;7.50;;
64085;SDS011;50333;47.436;21.390;2022-09-09T06:31:38;9.43;;;6.90;;
64085;SDS011;50333;47.436;21.390;2022-09-09T06:34:07;9.60;;;7.35;;
64085;SDS011;50333;47.436;21.390;2022-09-09T06:36:38;12.37;;;7.53;;
64085;SDS011;50333;47.436;21.390;2022-09-09T06:39:07;7.82;;;6.75;;
64085;SDS011;50333;47.436;21.390;2022-09-09T06:41:41;8.82;;;6.55;;
64085;SDS011;50333;47.436;21.390;2022-09-09T06:44:13;11.35;;;7.60;;
64085;SDS011;50333;47.436;21.390;2022-09-09T06:46:40;8.38;;;7.53;;
64085;SDS011;50333;47.436;21.390;2022-09-09T06:49:09;9.15;;;7.47;;
64085;SDS011;50333;47.436;21.390;2022-09-09T06:51:37;7.82;;;7.03;;
64085;SDS011;50333;47.436;21.390;2022-09-09T06:54:10;9.05;;;6.80;;
64085;SDS011;50333;47.436;21.390;2022-09-09T06:56:41;9.13;;;7.53;;
64085;SDS011;50333;47.436;21.390;2022-09-09T06:59:11;11.95;;;8.00;;
64085;SDS011;50333;47.436;21.390;2022-09-09T07:01:40;9.68;;;8.73;;
64085;SDS011;50333;47.436;21.390;2022-09-09T07:04:12;9.48;;;7.75;;
64085;SDS011;50333;47.436;21.390;2022-09-09T07:06:41;11.52;;;8.38;;
64085;SDS011;50333;47.436;21.390;2022-09-09T07:09:12;10.55;;;8.13;;
64085;SDS011;50333;47.436;21.390;2022-09-09T07:11:46;14.07;;;8.05;;
64085;SDS011;50333;47.436;21.390;2022-09-09T07:14:16;18.30;;;9.23;;
64085;SDS011;50333;47.436;21.390;2022-09-09T07:16:44;11.52;;;8.55;;
64085;SDS011;50333;47.436;21.390;2022-09-09T07:19:16;8.75;;;7.62;;
64085;SDS011;50333;47.436;21.390;2022-09-09T07:21:45;14.75;;;8.63;;
64085;SDS011;50333;47.436;21.390;2022-09-09T07:24:13;9.93;;;8.13;;
64085;SDS011;50333;47.436;21.390;2022-09-09T07:26:41;10.10;;;8.63;;
64085;SDS011;50333;47.436;21.390;2022-09-09T07:29:10;11.65;;;8.25;;
64085;SDS011;50333;47.436;21.390;2022-09-09T07:31:46;9.50;;;8.45;;
64085;SDS011;50333;47.436;21.390;2022-09-09T07:34:16;10.00;;;8.40;;
64085;SDS011;50333;47.436;21.390;2022-09-09T07:36:44;14.20;;;8.60;;
64085;SDS011;50333;47.436;21.390;2022-09-09T07:39:13;12.25;;;8.15;;
64085;SDS011;50333;47.436;21.390;2022-09-09T07:41:43;10.18;;;8.65;;
64085;SDS011;50333;47.436;21.390;2022-09-09T07:44:14;12.13;;;8.50;;
64085;SDS011;50333;47.436;21.390;2022-09-09T07:46:44;10.38;;;8.57;;
64085;SDS011;50333;47.436;21.390;2022-09-09T07:49:14;18.57;;;9.10;;
64085;SDS011;50333;47.436;21.390;2022-09-09T07:51:43;14.68;;;8.38;;
64085;SDS011;50333;47.436;21.390;2022-09-09T07:54:14;14.23;;;8.52;;
64085;SDS011;50333;47.436;21.390;2022-09-09T07:56:43;11.23;;;8.57;;
64085;SDS011;50333;47.436;21.390;2022-09-09T07:59:11;10.45;;;8.35;;
64085;SDS011;50333;47.436;21.390;2022-09-09T08:01:41;10.85;;;9.23;;
64085;SDS011;50333;47.436;21.390;2022-09-09T08:04:13;10.57;;;9.05;;
64085;SDS011;50333;47.436;21.390;2022-09-09T08:06:45;11.32;;;8.43;;
64085;SDS011;50333;47.436;21.390;2022-09-09T08:09:15;11.38;;;8.68;;
64085;SDS011;50333;47.436;21.390;2022-09-09T08:11:43;12.35;;;7.75;;
64085;SDS011;50333;47.436;21.390;2022-09-09T08:14:11;11.93;;;7.78;;
64085;SDS011;50333;47.436;21.390;2022-09-09T08:16:42;11.40;;;8.70;;
64085;SDS011;50333;47.436;21.390;2022-09-09T08:19:11;10.15;;;8.20;;
64085;SDS011;50333;47.436;21.390;2022-09-09T08:21:43;11.45;;;7.55;;
64085;SDS011;50333;47.436;21.390;2022-09-09T08:24:12;11.12;;;6.40;;
64085;SDS011;50333;47.436;21.390;2022-09-09T08:26:45;10.88;;;7.93;;
64085;SDS011;50333;47.436;21.390;2022-09-09T08:29:17;8.60;;;7.68;;
64085;SDS011;50333;47.436;21.390;2022-09-09T08:31:50;9.00;;;7.03;;
64085;SDS011;50333;47.436;21.390;2022-09-09T08:34:22;13.50;;;7.78;;
64085;SDS011;50333;47.436;21.390;2022-09-09T08:36:52;8.98;;;7.65;;
64085;SDS011;50333;47.436;21.390;2022-09-09T08:39:21;11.18;;;7.68;;
64085;SDS011;50333;47.436;21.390;2022-09-09T08:50:05;11.55;;;7.07;;
64085;SDS011;50333;47.436;21.390;2022-09-09T08:52:54;8.32;;;6.47;;
64085;SDS011;50333;47.436;21.390;2022-09-09T08:58:19;8.90;;;7.15;;
64085;SDS011;50333;47.436;21.390;2022-09-09T09:06:50;8.52;;;6.85;;
64085;SDS011;50333;47.436;21.390;2022-09-09T09:12:15;8.55;;;6.97;;
64085;SDS011;50333;47.436;21.390;2022-09-09T09:14:45;8.20;;;6.55;;
64085;SDS011;50333;47.436;21.390;2022-09-09T09:17:19;7.93;;;6.62;;
64085;SDS011;50333;47.436;21.390;2022-09-09T09:19:50;8.32;;;6.68;;
64085;SDS011;50333;47.436;21.390;2022-09-09T09:22:39;7.62;;;6.55;;
64085;SDS011;50333;47.436;21.390;2022-09-09T09:25:16;7.07;;;5.93;;
64085;SDS011;50333;47.436;21.390;2022-09-09T09:27:57;7.95;;;6.28;;
64085;SDS011;50333;47.436;21.390;2022-09-09T09:30:29;10.63;;;6.62;;
64085;SDS011;50333;47.436;21.390;2022-09-09T09:33:27;14.30;;;7.20;;
64085;SDS011;50333;47.436;21.390;2022-09-09T09:36:00;8.75;;;6.35;;
64085;SDS011;50333;47.436;21.390;2022-09-09T09:38:29;8.43;;;7.00;;
64085;SDS011;50333;47.436;21.390;2022-09-09T09:41:17;12.23;;;7.20;;
64085;SDS011;50333;47.436;21.390;2022-09-09T09:43:57;10.05;;;6.20;;
64085;SDS011;50333;47.436;21.390;2022-09-09T09:46:29;10.30;;;7.50;;
64085;SDS011;50333;47.436;21.390;2022-09-09T09:49:04;13.65;;;8.10;;
64085;SDS011;50333;47.436;21.390;2022-09-09T09:51:37;10.32;;;7.70;;
64085;SDS011;50333;47.436;21.390;2022-09-09T09:54:27;9.93;;;7.45;;
64085;SDS011;50333;47.436;21.390;2022-09-09T09:57:21;7.75;;;6.95;;
64085;SDS011;50333;47.436;21.390;2022-09-09T10:00:00;12.25;;;7.70;;
64085;SDS011;50333;47.436;21.390;2022-09-09T10:02:41;7.75;;;6.97;;
64085;SDS011;50333;47.436;21.390;2022-09-09T10:05:14;7.70;;;6.28;;
64085;SDS011;50333;47.436;21.390;2022-09-09T10:08:01;14.60;;;7.12;;
64085;SDS011;50333;47.436;21.390;2022-09-09T10:25:13;7.90;;;5.30;;
64085;SDS011;50333;47.436;21.390;2022-09-09T10:28:01;7.15;;;5.75;;
64085;SDS011;50333;47.436;21.390;2022-09-09T10:33:28;6.78;;;5.18;;
64085;SDS011;50333;47.436;21.390;2022-09-09T10:36:26;6.90;;;4.60;;
64085;SDS011;50333;47.436;21.390;2022-09-09T10:39:06;5.93;;;4.05;;
64085;SDS011;50333;47.436;21.390;2022-09-09T10:42:18;5.15;;;3.65;;
64085;SDS011;50333;47.436;21.390;2022-09-09T10:47:42;4.70;;;4.20;;
64085;SDS011;50333;47.436;21.390;2022-09-09T10:53:02;8.73;;;4.70;;
64085;SDS011;50333;47.436;21.390;2022-09-09T10:55:37;10.10;;;4.20;;
64085;SDS011;50333;47.436;21.390;2022-09-09T10:58:14;6.35;;;4.55;;
64085;SDS011;50333;47.436;21.390;2022-09-09T11:00:48;5.68;;;4.80;;
64085;SDS011;50333;47.436;21.390;2022-09-09T11:03:27;9.55;;;5.00;;
64085;SDS011;50333;47.436;21.390;2022-09-09T11:16:24;7.32;;;5.10;;
64085;SDS011;50333;47.436;21.390;2022-09-09T11:19:26;6.93;;;5.32;;
64085;SDS011;50333;47.436;21.390;2022-09-09T11:21:56;7.65;;;5.03;;
64085;SDS011;50333;47.436;21.390;2022-09-09T11:27:11;5.15;;;4.65;;
64085;SDS011;50333;47.436;21.390;2022-09-09T11:29:52;6.95;;;4.50;;
64085;SDS011;50333;47.436;21.390;2022-09-09T11:40:29;5.97;;;5.07;;
64085;SDS011;50333;47.436;21.390;2022-09-09T11:43:12;5.65;;;4.62;;
64085;SDS011;50333;47.436;21.390;2022-09-09T11:45:49;5.82;;;4.70;;
64085;SDS011;50333;47.436;21.390;2022-09-09T11:51:08;5.75;;;4.62;;
64085;SDS011;50333;47.436;21.390;2022-09-09T11:56:56;9.32;;;4.30;;
64085;SDS011;50333;47.436;21.390;2022-09-09T11:59:26;8.18;;;3.90;;
64085;SDS011;50333;47.436;21.390;2022-09-09T12:01:57;4.87;;;3.75;;
64085;SDS011;50333;47.436;21.390;2022-09-09T12:04:38;8.55;;;3.97;;
64085;SDS011;50333;47.436;21.390;2022-09-09T12:07:30;4.00;;;3.60;;
64085;SDS011;50333;47.436;21.390;2022-09-09T12:10:04;4.10;;;3.70;;
64085;SDS011;50333;47.436;21.390;2022-09-09T12:12:35;4.00;;;3.47;;
64085;SDS011;50333;47.436;21.390;2022-09-09T12:20:16;7.70;;;3.90;;
64085;SDS011;50333;47.436;21.390;2022-09-09T12:30:52;5.25;;;3.65;;
64085;SDS011;50333;47.436;21.390;2022-09-09T12:33:32;5.53;;;3.90;;
64085;SDS011;50333;47.436;21.390;2022-09-09T12:36:05;4.10;;;3.37;;
64085;SDS011;50333;47.436;21.390;2022-09-09T12:38:42;3.85;;;3.10;;
64085;SDS011;50333;47.436;21.390;2022-09-09T12:41:20;4.68;;;3.12;;
64085;SDS011;50333;47.436;21.390;2022-09-09T12:43:50;7.53;;;3.60;;
64085;SDS011;50333;47.436;21.390;2022-09-09T12:51:55;4.95;;;2.97;;
64085;SDS011;50333;47.436;21.390;2022-09-09T12:54:27;2.80;;;2.60;;
64085;SDS011;50333;47.436;21.390;2022-09-09T12:56:55;3.33;;;2.72;;
64085;SDS011;50333;47.436;21.390;2022-09-09T12:59:34;3.65;;;2.90;;
64085;SDS011;50333;47.436;21.390;2022-09-09T13:02:11;3.08;;;2.78;;
64085;SDS011;50333;47.436;21.390;2022-09-09T13:04:47;3.37;;;3.08;;
64085;SDS011;50333;47.436;21.390;2022-09-09T13:07:16;4.82;;;2.75;;
64085;SDS011;50333;47.436;21.390;2022-09-09T13:09:50;4.65;;;3.20;;
64085;SDS011;50333;47.436;21.390;2022-09-09T13:12:18;3.33;;;2.55;;
64085;SDS011;50333;47.436;21.390;2022-09-09T13:17:21;2.67;;;2.47;;
64085;SDS011;50333;47.436;21.390;2022-09-09T13:19:51;3.33;;;1.95;;
64085;SDS011;50333;47.436;21.390;2022-09-09T13:24:58;2.70;;;2.17;;
64085;SDS011;50333;47.436;21.390;2022-09-09T13:27:33;2.62;;;1.98;;
64085;SDS011;50333;47.436;21.390;2022-09-09T13:30:22;2.85;;;2.15;;
64085;SDS011;50333;47.436;21.390;2022-09-09T13:33:35;2.65;;;2.20;;
64085;SDS011;50333;47.436;21.390;2022-09-09T13:35:46;2.65;;;2.10;;
64085;SDS011;50333;47.436;21.390;2022-09-09T13:38:25;5.12;;;2.00;;
64085;SDS011;50333;47.436;21.390;2022-09-09T13:43:25;2.55;;;1.80;;
64085;SDS011;50333;47.436;21.390;2022-09-09T13:45:58;4.95;;;1.87;;
64085;SDS011;50333;47.436;21.390;2022-09-09T13:48:28;2.75;;;1.98;;
64085;SDS011;50333;47.436;21.390;2022-09-09T13:50:59;2.25;;;1.90;;
64085;SDS011;50333;47.436;21.390;2022-09-09T13:53:33;3.53;;;2.10;;
64085;SDS011;50333;47.436;21.390;2022-09-09T13:56:00;2.22;;;2.03;;
64085;SDS011;50333;47.436;21.390;2022-09-09T13:58:28;2.20;;;2.00;;
64085;SDS011;50333;47.436;21.390;2022-09-09T14:00:56;2.78;;;1.80;;
64085;SDS011;50333;47.436;21.390;2022-09-09T14:03:24;4.70;;;2.12;;
64085;SDS011;50333;47.436;21.390;2022-09-09T14:05:57;2.22;;;2.00;;
64085;SDS011;50333;47.436;21.390;2022-09-09T14:08:26;2.50;;;2.00;;
64085;SDS011;50333;47.436;21.390;2022-09-09T14:10:54;5.07;;;2.20;;
64085;SDS011;50333;47.436;21.390;2022-09-09T14:13:23;5.12;;;1.83;;
64085;SDS011;50333;47.436;21.390;2022-09-09T14:15:50;2.67;;;2.10;;
64085;SDS011;50333;47.436;21.390;2022-09-09T14:18:18;2.05;;;1.75;;
64085;SDS011;50333;47.436;21.390;2022-09-09T14:20:46;2.40;;;1.90;;
64085;SDS011;50333;47.436;21.390;2022-09-09T14:23:14;4.20;;;1.98;;
64085;SDS011;50333;47.436;21.390;2022-09-09T14:25:42;4.90;;;2.08;;
64085;SDS011;50333;47.436;21.390;2022-09-09T14:28:11;3.10;;;2.03;;
64085;SDS011;50333;47.436;21.390;2022-09-09T14:30:40;2.07;;;1.87;;
64085;SDS011;50333;47.436;21.390;2022-09-09T14:33:09;2.08;;;1.90;;
64085;SDS011;50333;47.436;21.390;2022-09-09T14:35:38;3.08;;;2.50;;
64085;SDS011;50333;47.436;21.390;2022-09-09T14:38:08;2.95;;;2.10;;
64085;SDS011;50333;47.436;21.390;2022-09-09T14:40:36;2.12;;;1.70;;
64085;SDS011;50333;47.436;21.390;2022-09-09T14:43:05;3.45;;;1.92;;
64085;SDS011;50333;47.436;21.390;2022-09-09T14:45:35;4.32;;;1.70;;
64085;SDS011;50333;47.436;21.390;2022-09-09T14:48:04;1.92;;;1.52;;
64085;SDS011;50333;47.436;21.390;2022-09-09T14:50:32;2.10;;;1.60;;
64085;SDS011;50333;47.436;21.390;2022-09-09T14:53:02;2.12;;;1.58;;
64085;SDS011;50333;47.436;21.390;2022-09-09T14:55:29;2.40;;;1.77;;
64085;SDS011;50333;47.436;21.390;2022-09-09T14:57:57;2.22;;;1.70;;
64085;SDS011;50333;47.436;21.390;2022-09-09T15:00:26;3.22;;;2.70;;
64085;SDS011;50333;47.436;21.390;2022-09-09T15:02:53;3.90;;;2.70;;
64085;SDS011;50333;47.436;21.390;2022-09-09T15:05:22;4.68;;;3.22;;
64085;SDS011;50333;47.436;21.390;2022-09-09T15:07:51;3.75;;;3.00;;
64085;SDS011;50333;47.436;21.390;2022-09-09T15:10:19;3.90;;;2.40;;
64085;SDS011;50333;47.436;21.390;2022-09-09T15:12:47;4.32;;;2.90;;
64085;SDS011;50333;47.436;21.390;2022-09-09T15:15:15;3.80;;;2.60;;
64085;SDS011;50333;47.436;21.390;2022-09-09T15:17:43;4.95;;;2.67;;
64085;SDS011;50333;47.436;21.390;2022-09-09T15:20:10;5.00;;;3.00;;
64085;SDS011;50333;47.436;21.390;2022-09-09T15:22:38;4.00;;;2.62;;
64085;SDS011;50333;47.436;21.390;2022-09-09T15:25:08;3.90;;;2.58;;
64085;SDS011;50333;47.436;21.390;2022-09-09T15:27:35;2.85;;;2.40;;
64085;SDS011;50333;47.436;21.390;2022-09-09T15:30:06;3.53;;;2.70;;
64085;SDS011;50333;47.436;21.390;2022-09-09T15:32:34;10.60;;;2.72;;
64085;SDS011;50333;47.436;21.390;2022-09-09T15:35:02;4.22;;;2.55;;
64085;SDS011;50333;47.436;21.390;2022-09-09T15:37:30;5.47;;;3.47;;
64085;SDS011;50333;47.436;21.390;2022-09-09T15:39:58;5.55;;;3.58;;
64085;SDS011;50333;47.436;21.390;2022-09-09T15:42:27;3.65;;;3.20;;
64085;SDS011;50333;47.436;21.390;2022-09-09T15:44:55;4.30;;;3.90;;
64085;SDS011;50333;47.436;21.390;2022-09-09T15:47:22;6.43;;;3.70;;
64085;SDS011;50333;47.436;21.390;2022-09-09T15:49:50;3.70;;;3.20;;
64085;SDS011;50333;47.436;21.390;2022-09-09T15:52:18;5.70;;;3.50;;
64085;SDS011;50333;47.436;21.390;2022-09-09T15:54:45;4.45;;;3.53;;
64085;SDS011;50333;47.436;21.390;2022-09-09T15:57:16;4.62;;;3.58;;
64085;SDS011;50333;47.436;21.390;2022-09-09T15:59:45;4.28;;;3.42;;
64085;SDS011;50333;47.436;21.390;2022-09-09T16:02:12;7.57;;;3.72;;
64085;SDS011;50333;47.436;21.390;2022-09-09T16:04:40;6.03;;;3.87;;
64085;SDS011;50333;47.436;21.390;2022-09-09T16:07:09;8.02;;;4.00;;
64085;SDS011;50333;47.436;21.390;2022-09-09T16:09:36;8.52;;;3.97;;
64085;SDS011;50333;47.436;21.390;2022-09-09T16:12:04;6.22;;;3.50;;
64085;SDS011;50333;47.436;21.390;2022-09-09T16:14:39;5.45;;;3.75;;
64085;SDS011;50333;47.436;21.390;2022-09-09T16:17:07;4.90;;;4.43;;
64085;SDS011;50333;47.436;21.390;2022-09-09T16:19:35;6.55;;;4.70;;
64085;SDS011;50333;47.436;21.390;2022-09-09T16:22:03;7.50;;;5.15;;
64085;SDS011;50333;47.436;21.390;2022-09-09T16:24:33;7.32;;;5.40;;
64085;SDS011;50333;47.436;21.390;2022-09-09T16:27:01;12.27;;;5.25;;
64085;SDS011;50333;47.436;21.390;2022-09-09T16:29:29;5.22;;;4.40;;
64085;SDS011;50333;47.436;21.390;2022-09-09T16:31:57;7.18;;;4.50;;
64085;SDS011;50333;47.436;21.390;2022-09-09T16:34:30;10.50;;;4.90;;
64085;SDS011;50333;47.436;21.390;2022-09-09T16:36:58;6.03;;;4.95;;
64085;SDS011;50333;47.436;21.390;2022-09-09T16:39:25;9.73;;;4.85;;
64085;SDS011;50333;47.436;21.390;2022-09-09T16:41:53;7.15;;;4.57;;
64085;SDS011;50333;47.436;21.390;2022-09-09T16:44:21;5.00;;;4.50;;
64085;SDS011;50333;47.436;21.390;2022-09-09T16:46:49;8.65;;;4.95;;
64085;SDS011;50333;47.436;21.390;2022-09-09T16:49:24;7.47;;;4.57;;
64085;SDS011;50333;47.436;21.390;2022-09-09T16:51:56;5.17;;;4.73;;
64085;SDS011;50333;47.436;21.390;2022-09-09T16:54:25;5.37;;;4.25;;
64085;SDS011;50333;47.436;21.390;2022-09-09T16:56:54;5.30;;;4.50;;
64085;SDS011;50333;47.436;21.390;2022-09-09T16:59:22;5.72;;;4.57;;
64085;SDS011;50333;47.436;21.390;2022-09-09T17:01:51;6.30;;;4.85;;
64085;SDS011;50333;47.436;21.390;2022-09-09T17:04:20;7.47;;;4.40;;
64085;SDS011;50333;47.436;21.390;2022-09-09T17:06:53;4.72;;;4.20;;
64085;SDS011;50333;47.436;21.390;2022-09-09T17:09:22;6.35;;;4.68;;
64085;SDS011;50333;47.436;21.390;2022-09-09T17:11:50;5.43;;;4.55;;
64085;SDS011;50333;47.436;21.390;2022-09-09T17:14:20;8.32;;;4.90;;
64085;SDS011;50333;47.436;21.390;2022-09-09T17:16:49;6.22;;;4.68;;
64085;SDS011;50333;47.436;21.390;2022-09-09T17:19:17;6.03;;;4.75;;
64085;SDS011;50333;47.436;21.390;2022-09-09T17:21:45;7.10;;;5.05;;
64085;SDS011;50333;47.436;21.390;2022-09-09T17:24:34;7.37;;;5.00;;
64085;SDS011;50333;47.436;21.390;2022-09-09T17:27:03;6.75;;;4.80;;
64085;SDS011;50333;47.436;21.390;2022-09-09T17:29:30;5.70;;;4.97;;
64085;SDS011;50333;47.436;21.390;2022-09-09T17:31:58;6.53;;;5.30;;